Terminal Aerodrome Forecast
Issued by NWS Pocatello, ID

Home | Current Version | Previous Version | Text Only | Print | Product List | Glossary On
Versions: 1 2 3 4 5 6 7 8 9 10 11 12 13 14
371
FTUS45 KPIH 141257 AAA
TAFBYI
TAF AMD
KBYI 141257Z 1413/1512 23015KT P6SM -SHRA SCT015 OVC050
      TEMPO 1413/1416 5SM -RA BR OVC015
     FM141600 25019G29KT P6SM -SHRA SCT025 OVC040
     FM142200 26020G30KT P6SM VCSH SCT030 BKN050
     FM150200 24015G25KT P6SM VCSH SCT030 BKN050=

USA.gov is the U.S. government's official web portal to all federal, state and local government web resources and services.